DEKBS EDDN-EDDN

Flight info

Callsign DEKBS
Flight time N/A
Altitude
Route
Aircraft C172

Departure

Time 2026-05-01 14:50
Airport Nuremberg Airport (EDDN)

Arrival

Time N/A
Airport Nuremberg Airport (EDDN)
Time Latitude Longitude Altitude Speed Heading
2026-05-01 14:41 49.49517 11.07267 1014 ft 0 kts 189°
2026-05-01 14:43 49.49506 11.07265 1014 ft 2 kts 183°
2026-05-01 14:43 49.49501 11.07264 1014 ft 0 kts 180°
2026-05-01 14:43 49.49500 11.07264 1014 ft 0 kts 178°
2026-05-01 14:43 49.49498 11.07265 1014 ft 4 kts 178°
2026-05-01 14:44 49.49493 11.07265 1014 ft 0 kts 179°
2026-05-01 14:44 49.49481 11.07266 1014 ft 0 kts 175°
2026-05-01 14:45 49.49515 11.07266 1013 ft 0 kts 189°
2026-05-01 14:45 49.49506 11.07263 1013 ft 8 kts 204°
2026-05-01 14:45 49.49575 11.07203 1013 ft 23 kts 11°
2026-05-01 14:46 49.49724 11.07213 1014 ft 19 kts 310°
2026-05-01 14:46 49.49843 11.07036 1014 ft 0 kts 339°
2026-05-01 14:49 49.49920 11.07267 1016 ft 55 kts 98°
2026-05-01 14:50 49.50464 11.07770 1282 ft 74 kts 358°
2026-05-01 14:50 49.51801 11.07570 1770 ft 77 kts 354°
2026-05-01 14:51 49.52235 11.07083 1837 ft 97 kts 275°
2026-05-01 14:51 49.52146 11.05231 2095 ft 104 kts 268°
2026-05-01 14:52 49.52155 11.03091 2558 ft 93 kts 278°
2026-05-01 14:52 49.52132 11.02003 2578 ft 111 kts 249°
2026-05-01 14:52 49.50957 11.01217 2904 ft 83 kts 150°
2026-05-01 14:53 49.50574 11.01819 3033 ft 84 kts 116°
2026-05-01 14:53 49.50353 11.02806 2246 ft 151 kts 102°
2026-05-01 14:53 49.50175 11.04476 1205 ft 153 kts 97°
2026-05-01 14:53 49.50052 11.05987 1027 ft 135 kts 101°
2026-05-01 14:54 49.49920 11.07353 1021 ft 124 kts 98°
2026-05-01 14:54 49.49794 11.08624 1035 ft 118 kts 101°
2026-05-01 14:54 49.49671 11.09774 1243 ft 86 kts 102°
2026-05-01 14:54 49.49668 11.10561 1505 ft 79 kts 79°
2026-05-01 14:55 49.49791 11.11453 1673 ft 82 kts 61°
2026-05-01 14:55 49.50165 11.12012 1867 ft 90 kts 18°
2026-05-01 14:55 49.50820 11.12134 2021 ft 96 kts
2026-05-01 14:55 49.51330 11.11587 2196 ft 103 kts 286°
2026-05-01 14:56 49.51453 11.10415 2232 ft 113 kts 274°
2026-05-01 14:56 49.51498 11.09285 2460 ft 107 kts 271°
2026-05-01 14:56 49.51525 11.08089 2537 ft 115 kts 269°
2026-05-01 14:56 49.51524 11.06928 2830 ft 99 kts 267°
2026-05-01 14:57 49.51488 11.05850 2976 ft 104 kts 259°
2026-05-01 14:57 49.50641 11.04545 3206 ft 102 kts 178°
2026-05-01 14:57 49.49927 11.04352 3327 ft 108 kts 202°
2026-05-01 14:58 49.49826 11.03312 3388 ft 118 kts 318°
2026-05-01 14:58 49.50386 11.03548 3354 ft 99 kts 91°
2026-05-01 14:58 49.49800 11.03622 3210 ft 140 kts 242°
2026-05-01 14:58 49.50283 11.02927 3176 ft 113 kts 48°
2026-05-01 14:59 49.49889 11.03382 3107 ft 131 kts 221°
2026-05-01 14:59 49.50233 11.02539 3160 ft 102 kts 36°
2026-05-01 14:59 49.49950 11.03034 3118 ft 124 kts 210°
2026-05-01 14:59 49.50207 11.02217 3104 ft 109 kts 32°
2026-05-01 15:00 49.49938 11.01876 3192 ft 113 kts 347°
2026-05-01 15:00 49.50291 11.02505 3396 ft 78 kts 78°
2026-05-01 15:00 49.50339 11.03335 3195 ft 114 kts 99°
2026-05-01 15:01 49.50254 11.03946 2588 ft 151 kts 99°
2026-05-01 15:01 49.50088 11.05652 1099 ft 168 kts 99°
2026-05-01 15:01 49.49929 11.07229 1017 ft 136 kts 98°
2026-05-01 15:01 49.49795 11.08575 1040 ft 121 kts 98°
2026-05-01 15:02 49.49673 11.09823 1130 ft 109 kts 102°
2026-05-01 15:02 49.49804 11.10451 1337 ft 103 kts 35°
2026-05-01 15:02 49.50617 11.10815 1722 ft 88 kts 12°
2026-05-01 15:02 49.51245 11.10842 1933 ft 88 kts 351°
2026-05-01 15:03 49.51714 11.10218 2007 ft 104 kts 278°
2026-05-01 15:03 49.51772 11.09135 2238 ft 95 kts 272°
2026-05-01 15:03 49.51772 11.08042 2344 ft 104 kts 266°
2026-05-01 15:03 49.51740 11.06959 2602 ft 94 kts 260°
2026-05-01 15:04 49.51561 11.05978 2756 ft 99 kts 240°
2026-05-01 15:04 49.51243 11.05066 2966 ft 93 kts 215°
2026-05-01 15:04 49.50694 11.04736 3148 ft 87 kts 177°
2026-05-01 15:04 49.50239 11.04953 3314 ft 71 kts 90°
2026-05-01 15:05 49.50077 11.05975 1094 ft 188 kts 110°
2026-05-01 15:05 49.49888 11.07636 1044 ft 138 kts 102°
2026-05-01 15:05 49.49753 11.09008 1044 ft 123 kts 97°
2026-05-01 15:05 49.49670 11.10057 1402 ft 85 kts 69°